createdAt,value
2022-11-25T00:01:26.605Z,3.45
2022-11-25T00:03:55.740Z,3.55
2022-11-25T00:06:25.328Z,3.00
2022-11-25T00:08:56.235Z,4.20
2022-11-25T00:11:23.162Z,3.72
2022-11-25T00:13:50.605Z,3.17
2022-11-25T00:16:19.877Z,2.90
2022-11-25T00:18:48.543Z,2.72
2022-11-25T00:21:17.809Z,3.72
2022-11-25T00:23:45.424Z,3.13
2022-11-25T00:26:14.931Z,3.88
2022-11-25T00:28:43.709Z,3.78
2022-11-25T00:31:13.541Z,3.92
2022-11-25T00:33:40.810Z,3.53
2022-11-25T00:36:30.671Z,3.13
2022-11-25T00:39:11.787Z,3.53
2022-11-25T00:41:57.694Z,3.55
2022-11-25T00:44:37.475Z,3.50
2022-11-25T00:47:06.450Z,4.03
2022-11-25T00:49:33.774Z,3.85
2022-11-25T00:52:00.529Z,3.50
2022-11-25T00:54:28.131Z,2.92
2022-11-25T00:56:54.858Z,3.50
2022-11-25T00:59:21.648Z,3.83
2022-11-25T01:01:48.853Z,3.30
2022-11-25T01:04:16.211Z,3.72
2022-11-25T01:06:43.113Z,3.58
2022-11-25T01:09:12.399Z,3.70
2022-11-25T01:11:39.881Z,4.15
2022-11-25T01:14:07.166Z,4.47
2022-11-25T01:16:33.894Z,3.40
2022-11-25T01:19:01.318Z,3.38
2022-11-25T01:21:33.466Z,3.08
2022-11-25T01:24:01.993Z,3.00
2022-11-25T01:26:29.917Z,3.88
2022-11-25T01:29:02.181Z,3.88
2022-11-25T01:31:31.710Z,3.13
2022-11-25T01:34:01.897Z,2.97
2022-11-25T01:36:29.595Z,4.00
2022-11-25T01:38:58.379Z,3.85
2022-11-25T01:41:28.558Z,3.85
2022-11-25T01:44:15.099Z,3.55
2022-11-25T01:46:56.941Z,3.42
2022-11-25T01:49:44.702Z,3.35
2022-11-25T01:52:35.770Z,3.58
2022-11-25T01:55:09.312Z,3.90
2022-11-25T01:57:54.460Z,3.85
2022-11-25T02:00:21.874Z,3.70
2022-11-25T02:02:50.841Z,3.90
2022-11-25T02:05:21.626Z,4.10
2022-11-25T02:07:51.243Z,3.63
2022-11-25T02:10:25.733Z,3.95
2022-11-25T02:12:53.220Z,3.13
2022-11-25T02:15:20.613Z,2.97
2022-11-25T02:17:47.459Z,3.35
2022-11-25T02:20:17.208Z,3.83
2022-11-25T02:23:02.566Z,3.20
2022-11-25T02:25:38.752Z,3.47
2022-11-25T02:28:15.680Z,3.63
2022-11-25T02:30:44.057Z,4.35
2022-11-25T02:33:11.436Z,3.35
2022-11-25T02:35:41.337Z,3.50
2022-11-25T02:38:20.412Z,3.80
2022-11-25T02:40:51.525Z,2.90
2022-11-25T02:43:19.199Z,3.50
2022-11-25T02:46:03.708Z,2.60
2022-11-25T02:49:06.728Z,3.15
2022-11-25T02:51:21.646Z,3.92
2022-11-25T02:53:48.931Z,3.95
2022-11-25T02:56:23.393Z,3.67
2022-11-25T02:58:50.085Z,4.03
2022-11-25T03:01:17.017Z,2.67
2022-11-25T03:03:43.889Z,2.97
2022-11-25T03:06:10.654Z,3.47
2022-11-25T03:08:38.314Z,3.58
2022-11-25T03:11:08.306Z,3.40
2022-11-25T03:13:35.100Z,3.03
2022-11-25T03:16:03.268Z,3.03
2022-11-25T03:18:30.083Z,3.97
2022-11-25T03:20:56.913Z,3.75
2022-11-25T03:23:25.507Z,3.78
2022-11-25T03:25:54.325Z,4.00
2022-11-25T03:28:21.528Z,4.35
2022-11-25T03:30:48.465Z,3.25
2022-11-25T03:33:15.332Z,3.03
2022-11-25T03:35:42.211Z,3.35
2022-11-25T03:38:08.956Z,3.70
2022-11-25T03:40:37.403Z,3.80
2022-11-25T03:43:05.068Z,4.13
2022-11-25T03:45:31.953Z,3.20
2022-11-25T03:48:02.102Z,3.35
2022-11-25T03:50:28.906Z,2.72
2022-11-25T03:52:55.721Z,3.40
2022-11-25T03:55:22.526Z,3.17
2022-11-25T03:57:50.466Z,3.42
2022-11-25T04:00:18.031Z,3.40
2022-11-25T04:02:45.323Z,2.88
2022-11-25T04:05:14.167Z,3.10
2022-11-25T04:07:41.059Z,2.65
2022-11-25T04:10:09.440Z,3.15
2022-11-25T04:12:48.293Z,2.97
2022-11-25T04:15:19.550Z,2.28
2022-11-25T04:17:50.942Z,2.72
2022-11-25T04:20:18.775Z,2.90
2022-11-25T04:22:51.490Z,2.38
2022-11-25T04:25:19.742Z,4.85
2022-11-25T04:27:47.106Z,3.40
2022-11-25T04:30:16.247Z,2.13
2022-11-25T04:32:44.249Z,1.80
2022-11-25T04:35:13.116Z,1.92
2022-11-25T04:37:43.621Z,1.77
2022-11-25T04:40:11.282Z,1.60
2022-11-25T04:42:39.813Z,1.30
2022-11-25T04:45:24.218Z,1.40
2022-11-25T04:47:53.294Z,1.73
2022-11-25T04:50:23.430Z,1.45
2022-11-25T04:53:10.883Z,1.65
2022-11-25T04:55:39.361Z,1.60
2022-11-25T04:58:11.878Z,1.60
2022-11-25T05:00:40.236Z,1.50
2022-11-25T05:03:08.336Z,1.50
2022-11-25T05:05:39.248Z,1.30
2022-11-25T05:08:06.234Z,1.65
2022-11-25T05:10:33.213Z,1.27
2022-11-25T05:13:00.249Z,1.35
2022-11-25T05:15:26.985Z,1.38
2022-11-25T05:17:54.538Z,1.00
2022-11-25T05:20:36.557Z,1.30
2022-11-25T05:23:03.277Z,1.42
2022-11-25T05:25:30.198Z,1.45
2022-11-25T05:28:09.274Z,1.10
2022-11-25T05:30:36.196Z,1.40
2022-11-25T05:33:02.905Z,2.13
2022-11-25T05:35:29.658Z,2.00
2022-11-25T05:37:56.304Z,1.40
2022-11-25T05:40:23.061Z,1.52
2022-11-25T05:43:00.427Z,1.70
2022-11-25T05:45:28.833Z,1.87
2022-11-25T05:47:56.208Z,2.15
2022-11-25T05:50:25.854Z,2.10
2022-11-25T05:53:17.326Z,1.80
2022-11-25T05:55:45.100Z,1.58
2022-11-25T05:58:24.175Z,1.70
2022-11-25T06:00:54.190Z,1.65
2022-11-25T06:03:29.192Z,1.75
2022-11-25T06:05:56.978Z,1.40
2022-11-25T06:08:23.677Z,1.85
2022-11-25T06:10:50.341Z,1.92
2022-11-25T06:13:17.342Z,1.80
2022-11-25T06:15:45.634Z,1.58
2022-11-25T06:18:17.330Z,1.75
2022-11-25T06:20:44.300Z,1.88
2022-11-25T06:23:11.111Z,1.75
2022-11-25T06:25:38.496Z,1.88
2022-11-25T06:28:13.882Z,1.80
2022-11-25T06:30:44.842Z,2.08
2022-11-25T06:33:25.533Z,2.10
2022-11-25T06:35:52.493Z,2.45
2022-11-25T06:38:19.212Z,2.03
2022-11-25T06:40:45.951Z,2.33
2022-11-25T06:43:12.694Z,2.53
2022-11-25T06:45:39.461Z,2.55
2022-11-25T06:48:06.228Z,2.28
2022-11-25T06:50:32.934Z,2.40
2022-11-25T06:53:01.686Z,2.50
2022-11-25T06:55:28.325Z,2.45
2022-11-25T06:58:08.399Z,2.03
2022-11-25T07:00:41.610Z,2.30
2022-11-25T07:03:08.343Z,2.10
2022-11-25T07:05:35.167Z,2.38
2022-11-25T07:08:01.967Z,2.80
2022-11-25T07:10:28.635Z,2.60
2022-11-25T07:12:55.344Z,2.25
2022-11-25T07:15:22.025Z,2.60
2022-11-25T07:17:48.717Z,2.83
2022-11-25T07:20:15.455Z,2.60
2022-11-25T07:22:42.164Z,2.60
2022-11-25T07:25:09.375Z,2.40
2022-11-25T07:27:36.049Z,3.17
2022-11-25T07:30:54.340Z,3.35
2022-11-25T07:32:49.473Z,2.60
2022-11-25T07:35:16.236Z,3.10
2022-11-25T07:37:43.103Z,2.97
2022-11-25T07:40:10.720Z,2.90
2022-11-25T07:42:37.410Z,2.53
2022-11-25T07:45:04.937Z,3.75
2022-11-25T07:47:44.086Z,3.20
2022-11-25T07:50:11.102Z,3.58
2022-11-25T07:52:39.798Z,3.30
2022-11-25T07:55:06.983Z,3.55
2022-11-25T07:57:33.822Z,3.25
2022-11-25T08:00:00.727Z,3.47
2022-11-25T08:02:27.683Z,3.22
2022-11-25T08:04:54.691Z,3.15
2022-11-25T08:07:21.536Z,3.67
2022-11-25T08:09:48.389Z,3.10
2022-11-25T08:12:15.080Z,3.03
2022-11-25T08:14:41.709Z,3.55
2022-11-25T08:17:08.515Z,3.35
2022-11-25T08:19:36.817Z,3.13
2022-11-25T08:22:03.700Z,3.70
2022-11-25T08:24:30.419Z,3.47
2022-11-25T08:26:58.664Z,3.08
2022-11-25T08:29:25.588Z,3.35
2022-11-25T08:31:52.430Z,3.30
2022-11-25T08:34:22.851Z,4.70
2022-11-25T08:36:53.118Z,3.30
2022-11-25T08:39:50.535Z,3.38
2022-11-25T08:42:08.854Z,3.78
2022-11-25T08:44:36.365Z,3.40
2022-11-25T08:47:03.178Z,3.60
2022-11-25T08:49:32.781Z,3.78
2022-11-25T08:52:03.108Z,3.35
2022-11-25T08:54:30.780Z,3.67
2022-11-25T08:56:57.637Z,3.45
2022-11-25T08:59:25.397Z,3.58
2022-11-25T09:01:52.277Z,3.40
2022-11-25T09:04:19.273Z,2.90
2022-11-25T09:06:46.176Z,3.20
2022-11-25T09:09:12.947Z,3.30
2022-11-25T09:11:39.732Z,3.58
2022-11-25T09:14:06.659Z,3.28
2022-11-25T09:16:33.696Z,2.92
2022-11-25T09:19:00.598Z,3.10
2022-11-25T09:21:27.472Z,3.03
2022-11-25T09:23:54.966Z,3.42
2022-11-25T09:26:27.552Z,3.28
2022-11-25T09:31:22.589Z,3.10
2022-11-25T09:33:49.716Z,3.28
2022-11-25T09:36:20.124Z,3.55
2022-11-25T09:38:47.250Z,4.20
2022-11-25T09:42:06.856Z,2.72
2022-11-25T09:45:06.382Z,2.88
2022-11-25T09:47:48.986Z,2.50
2022-11-25T09:50:53.888Z,3.05
2022-11-25T09:53:41.160Z,2.90
2022-11-25T09:56:19.610Z,3.03
2022-11-25T09:58:56.145Z,3.55
2022-11-25T10:01:26.948Z,3.10
2022-11-25T10:04:04.404Z,2.58
2022-11-25T10:06:43.334Z,3.13
2022-11-25T10:09:15.838Z,3.35
2022-11-25T10:11:52.994Z,3.08
2022-11-25T10:14:32.426Z,2.92
2022-11-25T10:17:28.954Z,3.13
2022-11-25T10:20:30.107Z,3.45
2022-11-25T10:23:28.494Z,3.47
2022-11-25T10:26:03.881Z,2.75
2022-11-25T10:28:33.422Z,2.75
2022-11-25T10:31:22.846Z,3.33
2022-11-25T10:33:53.269Z,3.10
2022-11-25T10:36:33.492Z,3.78
2022-11-25T10:39:15.083Z,3.70
2022-11-25T10:42:03.548Z,3.95
2022-11-25T10:44:36.792Z,3.20
2022-11-25T10:47:34.466Z,3.88
2022-11-25T10:50:14.606Z,3.72
2022-11-25T10:52:48.745Z,3.38
2022-11-25T10:55:21.725Z,4.00
2022-11-25T10:57:48.525Z,3.72
2022-11-25T11:00:36.370Z,4.40
2022-11-25T11:03:25.867Z,3.80
2022-11-25T11:05:54.050Z,3.85
2022-11-25T11:08:27.040Z,3.05
2022-11-25T11:11:12.551Z,3.53
2022-11-25T11:13:39.278Z,3.58
2022-11-25T11:16:23.089Z,4.35
2022-11-25T11:18:51.604Z,3.53
2022-11-25T11:21:30.744Z,3.70
2022-11-25T11:23:57.639Z,3.42
2022-11-25T11:26:28.372Z,3.70
2022-11-25T11:29:01.283Z,3.95
2022-11-25T11:31:35.803Z,3.63
2022-11-25T11:34:39.493Z,3.40
2022-11-25T11:37:30.221Z,3.60
2022-11-25T11:40:37.902Z,4.07
2022-11-25T11:43:16.477Z,3.35
2022-11-25T11:45:58.095Z,3.20
2022-11-25T11:48:53.246Z,3.45
2022-11-25T11:51:29.551Z,3.95
2022-11-25T11:53:56.260Z,3.38
2022-11-25T11:56:36.155Z,3.15
2022-11-25T11:59:31.453Z,3.85
2022-11-25T12:02:31.432Z,3.58
2022-11-25T12:05:10.366Z,2.83
2022-11-25T12:07:39.771Z,2.70
2022-11-25T12:10:34.627Z,2.97
2022-11-25T12:13:13.840Z,2.90
2022-11-25T12:16:09.106Z,2.92
2022-11-25T12:18:44.713Z,2.50
2022-11-25T12:21:41.423Z,2.70
2022-11-25T12:24:27.395Z,3.05
2022-11-25T12:27:16.189Z,2.80
2022-11-25T12:29:49.430Z,2.35
2022-11-25T12:32:40.462Z,2.70
2022-11-25T12:35:10.183Z,2.13
2022-11-25T12:37:45.627Z,3.25
2022-11-25T12:40:30.156Z,2.90
2022-11-25T12:43:06.589Z,3.28
2022-11-25T12:45:33.687Z,2.75
2022-11-25T12:48:00.505Z,2.45
2022-11-25T12:50:47.497Z,2.75
2022-11-25T12:53:39.631Z,2.78
2022-11-25T12:56:16.919Z,2.50
2022-11-25T12:59:21.348Z,2.67
2022-11-25T13:02:13.334Z,2.92
2022-11-25T13:05:25.321Z,2.35
2022-11-25T13:08:08.128Z,2.10
2022-11-25T13:11:19.550Z,2.33
2022-11-25T13:13:53.556Z,2.05
2022-11-25T13:16:22.928Z,2.38
2022-11-25T13:18:50.526Z,2.05
2022-11-25T13:21:18.962Z,3.40
2022-11-25T13:23:50.582Z,2.42
2022-11-25T13:26:37.197Z,2.43
2022-11-25T13:29:27.094Z,2.33
2022-11-25T13:31:59.615Z,3.30
2022-11-25T13:34:34.447Z,2.78
2022-11-25T13:37:21.232Z,2.38
2022-11-25T13:39:48.084Z,2.22
2022-11-25T13:42:26.701Z,2.38
2022-11-25T13:45:00.619Z,2.90
2022-11-25T13:47:43.384Z,2.38
2022-11-25T13:53:01.546Z,2.47
2022-11-25T13:55:37.133Z,2.80
2022-11-25T13:58:09.673Z,3.53
2022-11-25T14:03:24.074Z,2.45
2022-11-25T14:06:12.811Z,2.55
2022-11-25T14:08:58.759Z,2.53
2022-11-25T14:11:33.018Z,2.20
2022-11-25T14:14:24.740Z,2.88
2022-11-25T14:17:07.503Z,3.10
2022-11-25T14:22:36.110Z,3.08
2022-11-25T14:25:26.740Z,3.53
2022-11-25T14:28:17.795Z,3.00
2022-11-25T14:30:53.213Z,2.17
2022-11-25T14:33:38.574Z,2.65
2022-11-25T14:36:12.297Z,2.35
2022-11-25T14:38:45.112Z,2.63
2022-11-25T14:41:18.889Z,3.00
2022-11-25T14:43:54.283Z,2.53
2022-11-25T14:46:23.603Z,2.88
2022-11-25T14:49:02.888Z,3.17
2022-11-25T14:51:38.581Z,2.60
2022-11-25T14:54:09.726Z,3.28
2022-11-25T14:56:37.395Z,3.35
2022-11-25T14:59:04.479Z,3.92
2022-11-25T15:01:33.629Z,4.32
2022-11-25T15:04:12.783Z,3.78
2022-11-25T15:06:45.235Z,4.68
2022-11-25T15:09:25.439Z,5.50
2022-11-25T15:12:01.511Z,4.10
2022-11-25T15:14:38.646Z,3.38
2022-11-25T15:17:17.120Z,3.25
2022-11-25T15:19:43.819Z,3.08
2022-11-25T15:22:25.404Z,2.85
2022-11-25T15:24:55.885Z,2.88
2022-11-25T15:27:28.399Z,2.38
2022-11-25T15:29:57.074Z,2.47
2022-11-25T15:32:27.714Z,2.13
2022-11-25T15:34:57.359Z,2.80
2022-11-25T15:37:24.342Z,2.83
2022-11-25T15:40:29.303Z,3.42
2022-11-25T15:43:00.763Z,3.25
2022-11-25T15:45:33.660Z,3.53
2022-11-25T15:48:00.486Z,3.05
2022-11-25T15:50:28.499Z,3.80
2022-11-25T15:52:58.533Z,2.80
2022-11-25T15:55:39.674Z,3.75
2022-11-25T15:58:11.276Z,11.40
2022-11-25T16:00:41.573Z,4.47
2022-11-25T16:03:21.573Z,4.38
2022-11-25T16:05:56.017Z,3.03
2022-11-25T16:08:35.782Z,3.35
2022-11-25T16:11:15.210Z,3.47
2022-11-25T16:13:42.186Z,3.33
2022-11-25T16:16:18.049Z,3.97
2022-11-25T16:19:02.468Z,4.25
2022-11-25T16:21:35.146Z,3.83
2022-11-25T16:24:32.403Z,4.43
2022-11-25T16:27:06.619Z,3.67
2022-11-25T16:30:01.229Z,4.28
2022-11-25T16:32:30.354Z,4.90
2022-11-25T16:35:10.082Z,4.82
2022-11-25T16:37:36.840Z,4.82
2022-11-25T16:40:05.062Z,5.30
2022-11-25T16:42:32.619Z,5.93
2022-11-25T16:45:01.302Z,5.38
2022-11-25T16:47:27.996Z,5.80
2022-11-25T16:49:54.757Z,6.10
2022-11-25T16:52:21.894Z,5.50
2022-11-25T16:54:48.999Z,5.50
2022-11-25T16:57:21.888Z,6.40
2022-11-25T16:59:53.249Z,6.28
2022-11-25T17:02:23.104Z,5.40
2022-11-25T17:04:50.193Z,5.93
2022-11-25T17:07:34.677Z,7.07
2022-11-25T17:10:01.809Z,6.22
2022-11-25T17:12:32.255Z,7.43
2022-11-25T17:15:00.286Z,7.50
2022-11-25T17:17:27.980Z,9.52
2022-11-25T17:19:55.038Z,8.80
2022-11-25T17:22:24.961Z,9.13
2022-11-25T17:24:51.892Z,7.22
2022-11-25T17:27:29.814Z,6.15
2022-11-25T17:29:58.948Z,5.20
2022-11-25T17:32:26.653Z,5.05
2022-11-25T17:34:53.714Z,5.55
2022-11-25T17:37:24.594Z,6.03
2022-11-25T17:39:53.750Z,5.75
2022-11-25T17:42:30.530Z,6.20
2022-11-25T17:44:57.820Z,6.03
2022-11-25T17:47:24.596Z,5.75
2022-11-25T17:49:51.981Z,6.15
2022-11-25T17:52:18.842Z,6.93
2022-11-25T17:54:45.631Z,6.97
2022-11-25T17:57:19.786Z,7.35
2022-11-25T17:59:46.774Z,6.82
2022-11-25T18:02:22.222Z,10.88
2022-11-25T18:04:49.713Z,12.32
2022-11-25T18:07:17.140Z,16.92
2022-11-25T18:09:44.688Z,15.73
2022-11-25T18:12:27.697Z,12.27
2022-11-25T18:14:55.772Z,14.43
2022-11-25T18:17:22.733Z,11.18
2022-11-25T18:19:54.473Z,11.90
2022-11-25T18:22:24.170Z,8.43
2022-11-25T18:24:53.891Z,8.60
2022-11-25T18:27:26.966Z,8.38
2022-11-25T18:29:54.538Z,8.07
2022-11-25T18:32:23.456Z,8.77
2022-11-25T18:34:51.062Z,7.13
2022-11-25T18:37:18.043Z,7.85
2022-11-25T18:39:44.804Z,7.38
2022-11-25T18:42:33.758Z,7.45
2022-11-25T18:45:01.138Z,5.75
2022-11-25T18:47:27.975Z,6.30
2022-11-25T18:49:56.382Z,6.82
2022-11-25T18:52:24.838Z,7.32
2022-11-25T18:54:51.791Z,6.63
2022-11-25T18:57:18.790Z,8.20
2022-11-25T18:59:49.985Z,7.22
2022-11-25T19:02:23.180Z,10.93
2022-11-25T19:04:50.153Z,12.35
2022-11-25T19:07:16.948Z,12.65
2022-11-25T19:09:43.740Z,13.85
2022-11-25T19:12:17.386Z,17.17
2022-11-25T19:14:44.374Z,15.82
2022-11-25T19:17:29.282Z,13.88
2022-11-25T19:19:56.020Z,10.60
2022-11-25T19:22:24.582Z,9.45
2022-11-25T19:24:52.010Z,9.07
2022-11-25T19:27:23.733Z,8.80
2022-11-25T19:29:51.856Z,10.18
2022-11-25T19:32:30.590Z,14.40
2022-11-25T19:35:06.823Z,15.80
2022-11-25T19:37:33.920Z,18.38
2022-11-25T19:40:02.645Z,16.08
2022-11-25T19:42:31.814Z,13.13
2022-11-25T19:44:58.890Z,11.55
2022-11-25T19:47:26.758Z,9.95
2022-11-25T19:49:57.689Z,9.18
2022-11-25T19:52:33.050Z,7.97
2022-11-25T19:54:59.712Z,7.75
2022-11-25T19:57:27.803Z,7.22
2022-11-25T19:59:54.489Z,6.85
2022-11-25T20:02:24.086Z,7.72
2022-11-25T20:04:54.390Z,7.68
2022-11-25T20:07:22.016Z,7.40
2022-11-25T20:09:51.387Z,7.60
2022-11-25T20:12:21.136Z,8.20
2022-11-25T20:14:48.928Z,8.57
2022-11-25T20:17:28.686Z,7.35
2022-11-25T20:19:59.456Z,8.07
2022-11-25T20:22:31.301Z,7.00
2022-11-25T20:24:59.354Z,6.88
2022-11-25T20:27:28.057Z,7.75
2022-11-25T20:29:55.162Z,8.02
2022-11-25T20:32:34.230Z,7.47
2022-11-25T20:35:00.965Z,7.82
2022-11-25T20:37:40.418Z,7.82
2022-11-25T20:40:16.622Z,7.80
2022-11-25T20:42:43.337Z,9.38
2022-11-25T20:45:15.268Z,8.85
2022-11-25T20:47:42.422Z,8.50
2022-11-25T20:50:12.878Z,7.20
2022-11-25T20:52:40.725Z,7.63
2022-11-25T20:55:24.777Z,7.45
2022-11-25T20:57:52.306Z,7.10
2022-11-25T21:00:24.963Z,6.13
2022-11-25T21:05:19.899Z,7.60
2022-11-25T21:07:48.600Z,7.13
2022-11-25T21:10:34.887Z,6.35
2022-11-25T21:13:08.211Z,5.43
2022-11-25T21:15:35.022Z,10.57
2022-11-25T21:18:01.875Z,9.15
2022-11-25T21:20:28.665Z,8.32
2022-11-25T21:22:58.425Z,21.30
2022-11-25T21:25:25.552Z,27.60
2022-11-25T21:27:52.667Z,17.45
2022-11-25T21:30:25.195Z,15.40
2022-11-25T21:32:56.867Z,11.65
2022-11-25T21:35:32.415Z,8.60
2022-11-25T21:38:03.478Z,7.90
2022-11-25T21:40:40.583Z,6.80
2022-11-25T21:43:19.820Z,5.75
2022-11-25T21:45:49.295Z,6.03
2022-11-25T21:48:20.939Z,5.90
2022-11-25T21:50:48.109Z,6.10
2022-11-25T21:53:15.230Z,6.53
2022-11-25T21:55:43.429Z,5.93
2022-11-25T21:58:28.691Z,7.30
2022-11-25T22:01:01.565Z,5.93
2022-11-25T22:03:30.897Z,6.45
2022-11-25T22:05:57.793Z,6.55
2022-11-25T22:08:24.512Z,5.88
2022-11-25T22:10:53.623Z,6.30
2022-11-25T22:13:38.580Z,6.18
2022-11-25T22:16:05.905Z,4.97
2022-11-25T22:18:35.337Z,6.32
2022-11-25T22:21:03.215Z,4.80
2022-11-25T22:23:29.979Z,5.72
2022-11-25T22:25:57.694Z,5.70
2022-11-25T22:28:29.708Z,5.93
2022-11-25T22:31:00.345Z,6.22
2022-11-25T22:33:34.129Z,5.55
2022-11-25T22:36:01.794Z,5.82
2022-11-25T22:38:29.886Z,5.20
2022-11-25T22:41:00.311Z,5.60
2022-11-25T22:43:34.107Z,5.22
2022-11-25T22:46:01.002Z,6.80
2022-11-25T22:48:34.238Z,5.60
2022-11-25T22:51:03.101Z,5.28
2022-11-25T22:53:29.936Z,5.75
2022-11-25T22:55:58.046Z,5.25
2022-11-25T22:58:28.309Z,4.95
2022-11-25T23:00:56.638Z,4.65
2022-11-25T23:03:29.982Z,4.70
2022-11-25T23:05:57.215Z,6.57
2022-11-25T23:08:28.823Z,5.32
2022-11-25T23:10:56.605Z,5.82
2022-11-25T23:13:24.182Z,5.82
2022-11-25T23:15:56.498Z,5.05
2022-11-25T23:18:45.776Z,5.10
2022-11-25T23:21:24.295Z,4.68
2022-11-25T23:23:51.334Z,4.93
2022-11-25T23:26:18.111Z,5.18
2022-11-25T23:28:44.850Z,4.95
2022-11-25T23:31:16.489Z,4.97
2022-11-25T23:33:48.477Z,4.60
2022-11-25T23:36:25.622Z,4.60
2022-11-25T23:38:58.224Z,5.00
2022-11-25T23:43:53.724Z,4.57
2022-11-25T23:46:24.280Z,5.43
2022-11-25T23:48:57.297Z,4.53
2022-11-25T23:51:25.377Z,4.85
2022-11-25T23:53:52.910Z,4.38
2022-11-25T23:56:19.835Z,4.80
2022-11-25T23:58:46.607Z,4.57
